Time;durP1;ratioP1;P1;durP2;ratioP2;P2;SDS_P1;SDS_P2;PMS_P1;PMS_P2;Temp;Humidity;BMP_temperature;BMP_pressure;BME280_temperature;BME280_humidity;BME280_pressure;Samples;Min_cycle;Max_cycle;Signal;HPM_P1;HPM_P2
2021/03/20 00:01:58;;;;;;;12.90;5.57;;;;;;;-4.26;79.95;102659.47;5031803;28;20644;-64
2021/03/20 00:04:23;;;;;;;8.85;4.75;;;;;;;-4.26;79.89;102665.56;5031792;28;20595;-64
2021/03/20 00:06:52;;;;;;;6.95;3.88;;;;;;;-4.29;79.27;102660.34;5031631;28;20045;-64
2021/03/20 00:09:21;;;;;;;12.85;5.38;;;;;;;-4.30;79.35;102658.66;5031087;28;20038;-64
2021/03/20 00:11:48;;;;;;;7.78;4.25;;;;;;;-4.30;79.24;102665.63;5031383;28;20029;-64
2021/03/20 00:14:17;;;;;;;8.57;3.50;;;;;;;-4.35;79.42;102665.69;5030772;28;20045;-64
2021/03/20 00:16:42;;;;;;;9.15;4.00;;;;;;;-4.37;79.43;102670.03;5030667;28;20378;-64
2021/03/20 00:19:07;;;;;;;8.40;3.92;;;;;;;-4.42;78.98;102669.25;5031138;28;20033;-64
2021/03/20 00:21:33;;;;;;;12.57;4.97;;;;;;;-4.51;79.15;102677.19;5031484;28;20029;-64
2021/03/20 00:23:58;;;;;;;7.55;3.65;;;;;;;-4.53;79.53;102673.72;5031495;28;20033;-64
2021/03/20 00:26:24;;;;;;;7.28;3.63;;;;;;;-4.55;79.69;102678.94;5030990;28;20041;-63
2021/03/20 00:28:51;;;;;;;14.38;5.30;;;;;;;-4.53;79.92;102681.53;5030165;28;20041;-64
2021/03/20 00:31:17;;;;;;;7.65;4.05;;;;;;;-4.54;79.86;102685.00;5031400;28;20071;-64
2021/03/20 00:33:44;;;;;;;9.55;4.65;;;;;;;-4.57;79.85;102679.84;5013617;28;20069;-63
2021/03/20 00:36:11;;;;;;;7.28;4.13;;;;;;;-4.56;79.83;102681.59;5014043;28;20045;-63
2021/03/20 00:38:38;;;;;;;7.25;3.92;;;;;;;-4.58;79.65;102678.13;5031033;28;20038;-63
2021/03/20 00:41:05;;;;;;;6.72;3.00;;;;;;;-4.58;79.61;102675.53;5030734;28;20561;-63
2021/03/20 00:43:31;;;;;;;6.70;2.97;;;;;;;-4.59;79.49;102677.28;5031319;28;20043;-63
2021/03/20 00:45:56;;;;;;;10.32;3.15;;;;;;;-4.59;79.15;102671.19;5031241;28;20402;-63
2021/03/20 00:48:26;;;;;;;9.80;3.75;;;;;;;-4.60;79.42;102672.06;5013427;28;20107;-63
2021/03/20 00:50:52;;;;;;;6.35;4.05;;;;;;;-4.60;79.48;102665.09;5030898;28;20099;-63
2021/03/20 00:53:20;;;;;;;6.68;3.17;;;;;;;-4.64;78.98;102663.41;5030333;28;20043;-63
2021/03/20 00:55:46;;;;;;;6.15;3.00;;;;;;;-4.68;79.32;102662.59;5020598;28;20067;-63
2021/03/20 00:58:21;;;;;;;9.10;3.60;;;;;;;-4.65;79.11;102666.91;5029929;28;20120;-63
2021/03/20 01:00:47;;;;;;;7.50;3.00;;;;;;;-4.63;78.97;102661.69;5046692;28;20041;-63
2021/03/20 01:03:13;;;;;;;7.57;2.95;;;;;;;-4.68;78.57;102657.38;5031032;28;20033;-63
2021/03/20 01:05:38;;;;;;;8.93;2.70;;;;;;;-4.65;78.80;102660.84;5030277;28;20417;-63
2021/03/20 01:08:04;;;;;;;10.13;3.47;;;;;;;-4.68;78.75;102656.53;5046305;28;20049;-63
2021/03/20 01:10:29;;;;;;;9.98;4.07;;;;;;;-4.65;78.17;102655.63;5030053;28;20284;-63
2021/03/20 01:12:54;;;;;;;6.10;3.33;;;;;;;-4.60;78.33;102651.22;5044613;28;20458;-63
2021/03/20 01:15:20;;;;;;;6.93;3.03;;;;;;;-4.58;77.95;102657.28;5046445;28;20041;-63
2021/03/20 01:17:45;;;;;;;10.40;3.60;;;;;;;-4.53;78.21;102652.88;5030655;28;20037;-63
2021/03/20 01:20:12;;;;;;;8.05;2.78;;;;;;;-4.47;77.88;102655.41;5013558;28;20497;-63
2021/03/20 01:22:38;;;;;;;10.48;3.00;;;;;;;-4.34;78.25;102658.72;5030871;28;20069;-63
2021/03/20 01:25:05;;;;;;;10.52;2.95;;;;;;;-4.18;76.88;102656.75;5029687;28;20121;-63
2021/03/20 01:27:31;;;;;;;5.45;2.17;;;;;;;-4.13;76.94;102662.78;5046352;28;20052;-63
2021/03/20 01:29:56;;;;;;;6.32;3.30;;;;;;;-4.04;76.59;102673.09;5030781;28;20037;-63
2021/03/20 01:32:21;;;;;;;5.80;2.33;;;;;;;-3.96;76.52;102678.19;5030931;28;20087;-63
2021/03/20 01:34:47;;;;;;;7.68;2.17;;;;;;;-3.90;75.18;102668.53;5030849;28;20711;-63
2021/03/20 01:37:12;;;;;;;6.78;2.30;;;;;;;-3.85;75.77;102658.88;5030766;28;20034;-63
2021/03/20 01:39:38;;;;;;;5.93;2.28;;;;;;;-3.80;75.76;102652.72;5025152;28;20469;-63
2021/03/20 01:42:06;;;;;;;3.97;2.60;;;;;;;-3.81;76.26;102649.25;5030690;28;20048;-63
2021/03/20 01:44:31;;;;;;;8.40;2.47;;;;;;;-3.74;76.82;102643.06;5030671;28;20033;-63
2021/03/20 01:46:57;;;;;;;4.80;2.70;;;;;;;-3.68;75.92;102642.09;5033374;28;20372;-63
2021/03/20 01:49:28;;;;;;;7.00;2.83;;;;;;;-3.65;75.17;102639.44;5033034;28;20140;-64
2021/03/20 01:52:05;;;;;;;9.73;3.40;;;;;;;-3.57;74.43;102628.88;5033234;28;20442;-64
2021/03/20 01:55:01;;;;;;;6.40;2.45;;;;;;;-3.57;74.97;102629.72;5033255;28;20106;-64
2021/03/20 01:57:30;;;;;;;3.78;1.80;;;;;;;-3.54;75.17;102618.38;5033707;28;20116;-64
2021/03/20 01:59:57;;;;;;;8.30;3.17;;;;;;;-3.51;74.69;102621.81;5034112;28;20119;-64
2021/03/20 02:02:23;;;;;;;4.80;2.53;;;;;;;-3.46;75.87;102619.97;5016756;28;20094;-64
2021/03/20 02:04:49;;;;;;;4.10;2.33;;;;;;;-3.48;74.86;102613.06;5033318;28;20457;-64
2021/03/20 02:07:14;;;;;;;4.55;2.78;;;;;;;-3.44;74.83;102605.13;5033970;28;20508;-64
2021/03/20 02:09:40;;;;;;;6.60;2.15;;;;;;;-3.37;72.76;102611.13;5016172;28;20084;-64
2021/03/20 02:12:05;;;;;;;5.43;2.50;;;;;;;-3.22;70.98;102615.19;5001170;28;20126;-64
2021/03/20 02:14:55;;;;;;;4.68;2.40;;;;;;;-3.16;70.68;102609.88;5016504;28;20047;-64
2021/03/20 02:17:59;;;;;;;6.05;2.40;;;;;;;-3.05;69.25;102597.44;5016221;28;20402;-63
2021/03/20 02:20:45;;;;;;;5.05;2.88;;;;;;;-2.99;68.02;102601.69;4918508;29;20048;-64
2021/03/20 02:23:16;;;;;;;4.95;2.45;;;;;;;-2.91;67.22;102593.69;4934455;29;20122;-63
2021/03/20 02:26:14;;;;;;;6.45;2.95;;;;;;;-2.87;67.55;102591.00;4980658;28;20060;-63
2021/03/20 02:29:05;;;;;;;8.73;2.72;;;;;;;-2.86;67.69;102586.63;5016746;28;20033;-63
2021/03/20 02:31:33;;;;;;;4.78;2.20;;;;;;;-2.79;67.73;102581.25;5036384;28;20041;-64
2021/03/20 02:34:15;;;;;;;4.38;2.05;;;;;;;-2.59;66.13;102577.34;5033495;28;20064;-63
2021/03/20 02:37:00;;;;;;;8.13;2.75;;;;;;;-2.54;66.29;102565.03;5032525;28;20450;-64
2021/03/20 02:39:47;;;;;;;7.25;2.22;;;;;;;-2.43;65.52;102564.81;5033113;28;20423;-64
2021/03/20 02:42:41;;;;;;;6.13;1.80;;;;;;;-2.25;62.68;102556.50;5033518;28;20034;-63
2021/03/20 02:45:23;;;;;;;2.35;1.60;;;;;;;-2.28;63.99;102553.97;4983237;28;20450;-63
2021/03/20 02:47:58;;;;;;;3.20;1.85;;;;;;;-2.27;64.17;102555.72;5015573;28;20022;-64
2021/03/20 02:50:34;;;;;;;6.18;2.33;;;;;;;-2.26;64.44;102562.66;5015616;28;20040;-64
2021/03/20 02:53:11;;;;;;;4.13;1.77;;;;;;;-2.21;64.33;102567.78;5033006;28;20045;-64
2021/03/20 02:55:42;;;;;;;3.60;2.08;;;;;;;-2.13;62.89;102563.25;5031979;28;20179;-64
2021/03/20 02:58:20;;;;;;;4.70;1.50;;;;;;;-2.10;63.59;102559.69;5015203;28;20033;-64
2021/03/20 03:00:59;;;;;;;2.92;2.17;;;;;;;-2.17;63.12;102558.97;5032023;28;20195;-64
2021/03/20 03:03:29;;;;;;;6.03;1.48;;;;;;;-2.13;63.11;102558.00;5047702;28;20029;-64
2021/03/20 03:06:07;;;;;;;2.95;2.38;;;;;;;-2.10;62.51;102562.31;5031862;28;20040;-63
2021/03/20 03:08:54;;;;;;;6.80;2.17;;;;;;;-2.09;62.01;102570.09;5032637;28;20371;-64
2021/03/20 03:11:31;;;;;;;3.13;1.65;;;;;;;-2.13;63.29;102564.09;5032356;28;20037;-64
2021/03/20 03:14:18;;;;;;;3.60;1.95;;;;;;;-2.09;62.25;102571.88;5032807;28;20091;-63
2021/03/20 03:16:51;;;;;;;9.00;2.65;;;;;;;-2.08;62.12;102570.97;5032822;28;20056;-64
2021/03/20 03:19:24;;;;;;;5.93;1.60;;;;;;;-2.01;61.63;102567.31;5032040;28;20072;-64
2021/03/20 03:21:53;;;;;;;4.60;1.48;;;;;;;-2.03;62.11;102574.34;5032555;28;20033;-63
2021/03/20 03:24:23;;;;;;;5.15;1.50;;;;;;;-2.06;62.98;102572.66;5031520;28;20037;-64
2021/03/20 03:26:56;;;;;;;2.50;1.30;;;;;;;-1.98;61.63;102564.63;5032352;28;20057;-64
2021/03/20 03:29:26;;;;;;;4.45;1.45;;;;;;;-1.95;60.82;102560.16;5031165;28;20067;-64
2021/03/20 03:32:03;;;;;;;8.13;2.60;;;;;;;-1.93;61.69;102562.75;5032414;28;20091;-64
2021/03/20 03:34:29;;;;;;;5.93;1.88;;;;;;;-1.92;61.19;102553.97;5046142;28;20037;-64
2021/03/20 03:37:19;;;;;;;2.63;1.50;;;;;;;-1.96;61.47;102553.22;5032426;28;20128;-64
2021/03/20 03:39:51;;;;;;;8.00;2.00;;;;;;;-1.93;61.69;102549.66;5031915;28;20063;-64
2021/03/20 03:42:19;;;;;;;3.70;1.45;;;;;;;-1.89;60.68;102539.97;5048048;28;20457;-64
2021/03/20 03:44:50;;;;;;;4.47;1.90;;;;;;;-1.90;61.48;102544.34;5031211;28;20060;-63
2021/03/20 03:47:23;;;;;;;6.22;2.08;;;;;;;-1.93;60.89;102536.56;5032168;28;20045;-64
2021/03/20 03:49:49;;;;;;;4.55;1.55;;;;;;;-1.95;61.45;102541.84;5030877;28;20475;-64
2021/03/20 03:52:15;;;;;;;3.58;1.48;;;;;;;-1.93;62.03;102544.44;5031491;28;20075;-64
2021/03/20 03:54:41;;;;;;;3.30;1.60;;;;;;;-1.88;61.92;102541.69;5032023;28;20044;-64
2021/03/20 03:57:09;;;;;;;6.07;1.67;;;;;;;-1.96;63.28;102540.13;5031979;28;20125;-64
2021/03/20 03:59:47;;;;;;;4.95;1.98;;;;;;;-1.93;62.84;102544.44;5014228;28;20056;-63
2021/03/20 04:02:18;;;;;;;8.25;2.00;;;;;;;-1.95;62.43;102541.84;5031623;28;20056;-63
2021/03/20 04:05:25;;;;;;;3.03;1.50;;;;;;;-1.94;62.83;102527.88;5031736;28;20033;-63
2021/03/20 04:08:05;;;;;;;6.57;2.20;;;;;;;-1.93;62.27;102533.94;4984715;28;20377;-63
2021/03/20 04:10:37;;;;;;;3.53;1.98;;;;;;;-1.92;62.43;102535.66;5030602;28;20120;-63
2021/03/20 04:13:32;;;;;;;6.63;1.63;;;;;;;-1.94;62.18;102530.47;5031698;28;20073;-63
2021/03/20 04:16:14;;;;;;;2.67;2.22;;;;;;;-1.97;62.85;102533.19;5030792;28;20041;-63
2021/03/20 04:19:02;;;;;;;4.53;1.77;;;;;;;-1.96;62.89;102536.66;5013730;28;20405;-63
2021/03/20 04:21:56;;;;;;;5.50;1.85;;;;;;;-2.00;63.03;102533.25;5014238;28;20042;-63
2021/03/20 04:24:39;;;;;;;5.07;1.70;;;;;;;-1.97;63.59;102538.41;5031022;28;20033;-63
2021/03/20 04:27:16;;;;;;;6.13;2.03;;;;;;;-1.99;63.23;102544.56;5031410;28;20037;-63
2021/03/20 04:30:03;;;;;;;3.53;1.38;;;;;;;-1.98;62.85;102554.16;5013847;28;20069;-64
2021/03/20 04:32:49;;;;;;;4.45;1.95;;;;;;;-2.02;63.43;102549.88;5014088;28;20037;-64
2021/03/20 04:35:25;;;;;;;3.83;1.60;;;;;;;-2.04;63.80;102556.91;5031392;28;20083;-64
2021/03/20 04:37:53;;;;;;;15.13;2.77;;;;;;;-2.03;63.48;102551.66;5031147;28;20029;-64
2021/03/20 04:40:46;;;;;;;4.60;2.05;;;;;;;-1.95;63.61;102547.06;5031057;28;20032;-63
2021/03/20 04:43:16;;;;;;;3.38;1.50;;;;;;;-1.98;62.82;102539.31;5013982;28;20040;-64
2021/03/20 04:48:19;;;;;;;10.30;2.08;;;;;;;-1.95;63.65;102525.28;4997501;23;20050;-64
2021/03/20 04:50:50;;;;;;;7.07;1.77;;;;;;;-1.93;64.34;102523.47;4991627;28;20100;-64
2021/03/20 04:53:16;;;;;;;5.40;1.77;;;;;;;-1.99;63.75;102518.38;4992002;28;20042;-64
2021/03/20 04:55:42;;;;;;;7.13;2.00;;;;;;;-1.99;63.23;102518.38;4990906;28;20053;-64
2021/03/20 04:58:07;;;;;;;;;;;;;;;-1.97;64.09;102527.06;4991942;28;20057;-64
2021/03/20 05:00:43;;;;;;;2.80;1.30;;;;;;;-2.04;63.84;102530.72;4991630;28;19921;-64
2021/03/20 05:03:34;;;;;;;6.25;2.45;;;;;;;-2.06;64.06;102527.28;4990959;28;20040;-64
2021/03/20 05:06:08;;;;;;;5.07;1.55;;;;;;;-2.03;63.91;102529.84;4991872;28;20045;-64
2021/03/20 05:08:45;;;;;;;6.53;2.85;;;;;;;-2.02;65.01;102526.31;4991487;28;20045;-64
2021/03/20 05:11:43;;;;;;;5.43;1.40;;;;;;;-2.06;64.40;102522.94;4991805;28;20635;-64
2021/03/20 05:14:16;;;;;;;4.57;1.52;;;;;;;-2.02;64.92;102515.84;5007062;28;20053;-64
2021/03/20 05:16:58;;;;;;;2.70;1.38;;;;;;;-2.05;64.36;102513.31;4991611;28;20050;-64
2021/03/20 05:19:26;;;;;;;4.85;1.60;;;;;;;-2.06;64.85;102519.44;4991324;28;20065;-64
2021/03/20 05:21:54;;;;;;;7.15;2.35;;;;;;;-2.01;64.69;102526.28;4993532;28;20383;-64
2021/03/20 05:24:32;;;;;;;4.75;2.10;;;;;;;-2.08;65.33;102529.97;4995372;28;20535;-64
2021/03/20 05:26:59;;;;;;;3.70;1.70;;;;;;;-2.02;64.78;102534.19;4994419;28;20458;-64
2021/03/20 05:29:26;;;;;;;2.63;1.58;;;;;;;-2.05;64.02;102529.03;4995017;28;20034;-64
2021/03/20 05:31:52;;;;;;;4.30;1.92;;;;;;;-2.10;63.98;102533.53;4994207;28;20244;-64
2021/03/20 05:34:23;;;;;;;8.18;1.70;;;;;;;-2.03;64.16;102528.09;4995135;28;20493;-64
2021/03/20 05:36:48;;;;;;;3.22;1.50;;;;;;;-1.98;63.73;102533.22;4995311;28;20069;-64
2021/03/20 05:39:14;;;;;;;3.47;1.40;;;;;;;-1.95;63.90;102525.28;4994890;28;20085;-64
2021/03/20 05:41:46;;;;;;;;;;;;;;;-1.92;64.40;102518.22;5010832;28;20039;-64
2021/03/20 05:44:18;;;;;;;4.30;1.73;;;;;;;-1.91;64.35;102511.22;4993979;28;19920;-64
2021/03/20 05:47:16;;;;;;;3.25;1.88;;;;;;;-1.89;64.60;102513.81;4993891;28;20149;-64
2021/03/20 05:49:59;;;;;;;5.85;1.88;;;;;;;-1.86;64.42;102516.34;4994833;28;20038;-64
2021/03/20 05:52:56;;;;;;;5.75;2.10;;;;;;;-1.81;63.93;102512.69;4993992;28;20117;-64
2021/03/20 05:55:54;;;;;;;2.88;1.67;;;;;;;-1.71;64.45;102519.44;4994915;28;20045;-64
2021/03/20 05:58:51;;;;;;;5.53;1.95;;;;;;;-1.76;63.82;102512.56;4951680;28;20128;-64
2021/03/20 06:01:31;;;;;;;4.10;2.08;;;;;;;-1.70;63.63;102508.03;5010076;28;20046;-64
2021/03/20 06:04:18;;;;;;;3.63;2.17;;;;;;;-1.70;63.44;102505.41;4993781;28;20128;-64
2021/03/20 06:07:19;;;;;;;3.78;2.08;;;;;;;-1.71;63.63;102511.56;4994663;28;20084;-64
2021/03/20 06:09:51;;;;;;;8.57;1.77;;;;;;;-1.70;63.82;102512.41;4994363;28;20133;-64
2021/03/20 06:12:31;;;;;;;7.40;2.38;;;;;;;-1.64;63.83;102504.41;4994531;28;20038;-64
2021/03/20 06:15:12;;;;;;;6.78;2.83;;;;;;;-1.63;64.29;102500.03;5009906;28;20173;-64
2021/03/20 06:18:01;;;;;;;5.47;1.92;;;;;;;-1.59;64.75;102496.41;4993895;28;20065;-64
2021/03/20 06:20:50;;;;;;;7.22;1.80;;;;;;;-1.56;65.24;102486.72;4994412;28;20035;-64
2021/03/20 06:23:32;;;;;;;4.55;1.88;;;;;;;-1.54;65.22;102481.44;4994250;28;20113;-64
2021/03/20 06:26:10;;;;;;;6.45;1.92;;;;;;;-1.45;64.50;102496.03;4994271;28;20073;-64
2021/03/20 06:28:41;;;;;;;7.30;2.10;;;;;;;-1.37;64.29;102476.59;5009055;28;20038;-64
2021/03/20 06:31:16;;;;;;;5.13;2.22;;;;;;;-1.35;64.58;102479.16;4993815;28;20467;-64
2021/03/20 06:33:50;;;;;;;9.50;2.40;;;;;;;-1.35;63.43;102484.41;4994179;28;20045;-64
2021/03/20 06:36:21;;;;;;;4.22;1.50;;;;;;;-1.31;63.39;102492.16;4993868;28;20038;-64
2021/03/20 06:39:02;;;;;;;6.30;2.15;;;;;;;-1.25;63.56;102496.34;4993879;28;20446;-64
2021/03/20 06:41:33;;;;;;;4.82;1.98;;;;;;;-1.35;63.11;102489.66;4993998;28;20054;-64
2021/03/20 06:44:05;;;;;;;4.05;1.63;;;;;;;-1.37;63.51;102491.44;5008780;28;20046;-64
2021/03/20 06:46:34;;;;;;;2.70;1.70;;;;;;;-1.20;63.99;102498.84;4993892;28;20057;-64
2021/03/20 06:49:01;;;;;;;4.60;1.63;;;;;;;-1.17;63.35;102494.38;4993546;28;20038;-64
2021/03/20 06:51:28;;;;;;;7.85;2.95;;;;;;;-1.16;62.95;102488.22;4993670;28;20034;-64
2021/03/20 06:54:02;;;;;;;7.30;1.92;;;;;;;-1.17;62.77;102483.00;5009195;28;20142;-64
2021/03/20 06:56:36;;;;;;;7.43;3.40;;;;;;;-1.15;63.59;102481.19;5009099;28;20061;-64
2021/03/20 06:59:10;;;;;;;2.28;1.48;;;;;;;-1.21;62.13;102477.00;4993531;28;20348;-64
2021/03/20 07:01:50;;;;;;;4.57;1.38;;;;;;;-1.13;61.89;102474.16;4976573;28;20038;-64
2021/03/20 07:04:34;;;;;;;4.20;1.30;;;;;;;-1.05;62.51;102464.31;5008879;28;20038;-64
2021/03/20 07:07:14;;;;;;;7.10;2.92;;;;;;;-0.99;62.72;102476.38;4992396;28;20046;-64
2021/03/20 07:09:41;;;;;;;3.22;1.42;;;;;;;-0.97;61.64;102470.19;4992782;28;20045;-64
2021/03/20 07:12:14;;;;;;;8.13;1.73;;;;;;;-0.88;61.57;102469.91;4993296;28;20037;-64
2021/03/20 07:14:42;;;;;;;6.18;1.73;;;;;;;-0.87;60.85;102463.78;4993439;28;20124;-64
2021/03/20 07:17:24;;;;;;;2.88;1.73;;;;;;;-0.80;61.05;102466.19;4993378;28;20133;-64
2021/03/20 07:20:26;;;;;;;5.63;1.80;;;;;;;-0.67;61.01;102462.28;4993101;28;20038;-64
2021/03/20 07:23:14;;;;;;;6.38;1.40;;;;;;;-0.57;60.77;102457.59;4950637;28;20434;-64
2021/03/20 07:25:50;;;;;;;4.05;2.17;;;;;;;-0.63;59.86;102461.28;4993089;28;20045;-64
2021/03/20 07:28:18;;;;;;;;;;;;;;;-0.60;59.99;102450.69;4993136;28;20049;-64
2021/03/20 07:30:58;;;;;;;3.40;1.60;;;;;;;-0.67;59.65;102462.28;4993155;28;19913;-64
2021/03/20 07:33:31;;;;;;;3.33;1.63;;;;;;;-0.50;59.81;102459.97;5008544;28;20030;-64
2021/03/20 07:36:13;;;;;;;5.20;1.80;;;;;;;-0.43;59.76;102456.25;5008432;28;20042;-64
2021/03/20 07:38:38;;;;;;;3.95;1.65;;;;;;;-0.46;59.49;102452.88;4992698;28;20125;-64
2021/03/20 07:41:16;;;;;;;4.30;1.30;;;;;;;-0.37;58.62;102449.09;4992693;28;20129;-64
2021/03/20 07:43:57;;;;;;;3.83;1.30;;;;;;;-0.04;58.47;102441.88;4992117;28;20049;-64
2021/03/20 07:46:23;;;;;;;12.40;1.55;;;;;;;0.11;57.09;102446.56;4992500;28;20125;-64
2021/03/20 07:49:19;;;;;;;2.60;1.20;;;;;;;0.15;57.12;102434.19;4992621;28;20129;-64
2021/03/20 07:51:48;;;;;;;10.23;2.08;;;;;;;0.14;56.57;102440.34;5007948;28;20038;-64
2021/03/20 07:54:41;;;;;;;13.05;2.40;;;;;;;0.26;56.94;102439.94;4991641;28;20041;-64
2021/03/20 07:57:13;;;;;;;5.35;1.33;;;;;;;0.24;56.58;102431.25;4989290;28;20046;-64
2021/03/20 07:59:46;;;;;;;7.90;1.63;;;;;;;0.38;56.05;102436.88;4991114;28;20030;-64
2021/03/20 08:02:35;;;;;;;4.68;2.05;;;;;;;0.53;56.14;102431.97;4991446;28;20041;-64
2021/03/20 08:05:05;;;;;;;2.65;1.60;;;;;;;0.64;54.43;102429.78;4991528;28;20465;-64
2021/03/20 08:07:38;;;;;;;2.17;1.05;;;;;;;0.98;54.70;102428.50;4992105;28;20061;-64
2021/03/20 08:10:18;;;;;;;6.90;2.33;;;;;;;1.48;55.85;102423.88;5007779;28;20547;-64
2021/03/20 08:12:54;;;;;;;9.38;1.55;;;;;;;1.04;53.85;102426.50;4991272;28;20125;-64
2021/03/20 08:15:26;;;;;;;3.40;1.50;;;;;;;1.17;53.19;102424.25;4992248;28;20046;-64
2021/03/20 08:17:51;;;;;;;5.75;1.80;;;;;;;1.41;53.54;102426.81;4990917;28;20045;-65
2021/03/20 08:20:18;;;;;;;4.05;1.30;;;;;;;1.41;54.04;102434.72;5007235;28;20050;-65
2021/03/20 08:23:08;;;;;;;3.78;1.58;;;;;;;1.17;52.83;102433.91;4992098;28;20104;-65
2021/03/20 08:25:53;;;;;;;4.03;1.30;;;;;;;1.07;52.46;102441.31;4992125;28;20046;-64
2021/03/20 08:28:32;;;;;;;2.57;1.50;;;;;;;0.97;53.15;102435.53;4991557;28;20041;-64
2021/03/20 08:31:15;;;;;;;2.70;1.70;;;;;;;1.17;54.13;102433.91;5007321;28;20619;-64
2021/03/20 08:34:01;;;;;;;10.35;1.50;;;;;;;1.19;53.20;102426.81;5007404;28;20077;-64
2021/03/20 08:36:29;;;;;;;4.72;1.50;;;;;;;1.15;53.40;102419.97;4991081;28;20049;-64
2021/03/20 08:39:03;;;;;;;3.53;1.45;;;;;;;1.12;53.41;102420.06;5007081;28;20042;-64
2021/03/20 08:41:44;;;;;;;7.97;1.83;;;;;;;1.53;54.40;102422.84;5007285;28;20078;-64
2021/03/20 08:44:43;;;;;;;3.03;1.38;;;;;;;1.67;53.27;102423.97;4991969;28;20443;-64
2021/03/20 08:47:26;;;;;;;3.58;1.48;;;;;;;1.40;53.33;102425.09;5007344;28;20046;-64
2021/03/20 08:50:16;;;;;;;5.18;1.50;;;;;;;1.67;54.44;102421.34;4990781;28;20031;-64
2021/03/20 08:53:06;;;;;;;3.42;1.60;;;;;;;1.81;53.75;102415.50;4990552;28;20370;-64
2021/03/20 08:55:44;;;;;;;7.55;2.10;;;;;;;2.07;53.31;102417.00;5009516;28;20367;-63
2021/03/20 08:58:37;;;;;;;5.82;2.13;;;;;;;1.96;53.96;102415.75;5010783;28;20077;-64
2021/03/20 09:01:11;;;;;;;5.22;1.88;;;;;;;2.36;51.82;102416.63;4995817;28;20464;-64
2021/03/20 09:03:43;;;;;;;3.22;1.52;;;;;;;2.38;52.23;102414.78;4995856;28;20447;-64
2021/03/20 09:06:20;;;;;;;4.03;1.95;;;;;;;2.47;51.66;102412.59;4995551;28;20037;-64
2021/03/20 09:08:48;;;;;;;8.45;2.75;;;;;;;1.99;51.90;102411.22;4995609;28;20038;-64
2021/03/20 09:11:30;;;;;;;5.03;2.10;;;;;;;2.17;53.04;102401.63;4995602;28;20340;-64
2021/03/20 09:14:02;;;;;;;5.00;2.40;;;;;;;2.35;53.05;102407.88;4995790;28;20045;-64
2021/03/20 09:16:46;;;;;;;7.05;2.13;;;;;;;2.06;52.48;102404.75;4995579;28;20038;-64
2021/03/20 09:19:23;;;;;;;4.97;1.80;;;;;;;2.12;52.91;102398.34;4995221;28;20041;-65
2021/03/20 09:21:52;;;;;;;4.80;1.80;;;;;;;2.33;53.48;102396.56;4995222;28;20045;-64
2021/03/20 09:24:23;;;;;;;4.05;2.20;;;;;;;2.82;53.41;102399.56;5010979;28;20070;-64
2021/03/20 09:26:52;;;;;;;6.25;2.25;;;;;;;3.19;51.78;102387.28;5024042;23;20108;-72
2021/03/20 09:29:33;;;;;;;5.50;2.58;;;;;;;3.12;52.03;102391.16;4994549;28;20053;-74
2021/03/20 09:32:09;;;;;;;6.97;2.20;;;;;;;2.73;52.89;102378.91;4994739;28;20113;-74
2021/03/20 09:34:41;;;;;;;2.83;1.60;;;;;;;2.61;53.67;102379.47;4994809;28;20447;-73
2021/03/20 09:37:16;;;;;;;5.05;2.38;;;;;;;2.81;52.90;102376.78;4993848;28;20078;-73
2021/03/20 09:39:48;;;;;;;3.85;2.30;;;;;;;2.73;54.07;102371.84;4994194;28;20121;-73
2021/03/20 09:42:29;;;;;;;8.82;2.60;;;;;;;2.73;53.81;102363.94;4995003;28;20123;-73
2021/03/20 09:45:01;;;;;;;5.90;2.00;;;;;;;2.44;54.63;102362.66;4995157;28;20038;-73
2021/03/20 09:47:33;;;;;;;5.82;2.22;;;;;;;2.38;54.94;102356.81;4977295;28;20104;-73
2021/03/20 09:50:05;;;;;;;6.28;2.63;;;;;;;2.58;54.34;102359.38;4977157;28;20060;-73
2021/03/20 09:52:40;;;;;;;8.93;2.45;;;;;;;2.40;54.52;102345.25;4994871;28;20366;-73
2021/03/20 09:55:30;;;;;;;8.05;2.03;;;;;;;2.50;55.23;102351.81;4994515;28;20053;-73
2021/03/20 09:58:04;;;;;;;4.78;2.45;;;;;;;2.55;55.33;102343.69;4994184;28;20465;-73
2021/03/20 10:00:50;;;;;;;6.55;2.88;;;;;;;2.66;55.26;102335.28;4977083;28;20042;-74
2021/03/20 10:03:42;;;;;;;11.23;4.10;;;;;;;3.09;55.49;102339.38;4983673;28;20065;-73
2021/03/20 10:06:22;;;;;;;5.03;2.60;;;;;;;3.55;54.85;102334.41;4993776;28;20030;-73
2021/03/20 10:08:57;;;;;;;4.65;3.08;;;;;;;3.75;53.79;102328.13;4977104;28;20463;-73
2021/03/20 10:11:33;;;;;;;5.70;2.53;;;;;;;4.01;54.66;102321.47;4994406;28;20089;-73
2021/03/20 10:14:00;;;;;;;7.57;2.80;;;;;;;4.40;53.37;102314.09;4993808;28;20046;-73
2021/03/20 10:16:31;;;;;;;6.20;2.75;;;;;;;4.37;52.25;102319.56;4993557;28;20459;-73
2021/03/20 10:19:12;;;;;;;7.22;2.58;;;;;;;4.38;53.30;102310.72;4994378;28;20046;-73
2021/03/20 10:21:38;;;;;;;6.50;3.60;;;;;;;4.26;52.91;102314.00;4994477;28;20030;-64
2021/03/20 10:24:17;;;;;;;10.55;4.20;;;;;;;3.82;54.51;102304.88;4994251;28;20042;-63
2021/03/20 10:27:05;;;;;;;7.05;4.07;;;;;;;4.44;54.22;102315.63;4977018;28;20466;-64
2021/03/20 10:29:35;;;;;;;8.10;3.45;;;;;;;5.65;53.57;102319.28;4993172;28;20109;-63
2021/03/20 10:32:05;;;;;;;6.47;3.40;;;;;;;4.98;52.22;102316.13;4994143;28;20038;-63
2021/03/20 10:34:43;;;;;;;9.13;3.03;;;;;;;4.82;52.69;102312.63;4993029;28;20054;-63
2021/03/20 10:37:11;;;;;;;9.23;3.85;;;;;;;4.98;53.08;102302.88;4993853;28;20046;-63
2021/03/20 10:39:41;;;;;;;5.45;3.45;;;;;;;4.64;53.59;102302.16;4976718;28;20066;-63
2021/03/20 10:42:16;;;;;;;7.70;3.95;;;;;;;3.91;55.96;102304.41;4993780;28;20030;-63
2021/03/20 10:44:44;;;;;;;12.90;4.88;;;;;;;3.90;56.50;102309.75;4993823;28;20034;-63
2021/03/20 10:47:12;;;;;;;9.55;4.20;;;;;;;4.17;56.30;102305.66;4992146;28;20038;-63
2021/03/20 10:49:45;;;;;;;7.93;4.15;;;;;;;4.10;56.34;102304.28;4993315;28;20046;-63
2021/03/20 10:52:19;;;;;;;6.35;3.53;;;;;;;4.05;56.86;102298.38;4976503;28;20034;-63
2021/03/20 10:54:52;;;;;;;6.03;4.13;;;;;;;3.48;58.86;102303.13;4976193;28;20048;-63
2021/03/20 10:57:21;;;;;;;11.65;5.28;;;;;;;3.66;59.03;102299.53;4976605;28;20134;-63
2021/03/20 10:59:48;;;;;;;5.75;3.85;;;;;;;3.84;59.00;102288.94;4993215;28;20042;-63
2021/03/20 11:02:28;;;;;;;12.02;4.20;;;;;;;3.43;59.32;102289.31;4993489;28;20093;-63
2021/03/20 11:05:11;;;;;;;7.68;4.53;;;;;;;3.57;58.97;102284.16;4976165;28;20045;-63
2021/03/20 11:07:46;;;;;;;7.32;4.82;;;;;;;3.32;59.75;102279.28;4993036;28;20116;-63
2021/03/20 11:10:14;;;;;;;13.35;4.50;;;;;;;3.46;60.84;102273.28;4993487;28;20027;-63
2021/03/20 11:12:40;;;;;;;10.68;4.35;;;;;;;3.36;61.17;102273.75;4993168;28;20452;-63
2021/03/20 11:15:06;;;;;;;8.60;3.97;;;;;;;3.33;61.21;102266.00;4992421;28;20030;-63
2021/03/20 11:17:33;;;;;;;6.57;3.72;;;;;;;3.18;61.66;102264.13;4990932;28;20344;-63
2021/03/20 11:20:15;;;;;;;9.52;4.82;;;;;;;3.29;62.30;102259.16;4991397;28;20069;-63
2021/03/20 11:22:41;;;;;;;11.75;4.75;;;;;;;3.02;61.91;102252.63;4991322;28;20046;-63
2021/03/20 11:25:16;;;;;;;6.75;3.40;;;;;;;3.19;62.06;102244.75;4974463;28;20632;-63
2021/03/20 11:27:42;;;;;;;10.70;4.65;;;;;;;3.27;62.30;102239.91;4992278;28;20049;-63
2021/03/20 11:30:16;;;;;;;9.75;5.53;;;;;;;3.41;61.82;102233.09;4975862;28;20037;-63
2021/03/20 11:32:44;;;;;;;8.30;4.32;;;;;;;2.69;62.63;102229.63;4993003;28;20030;-63
2021/03/20 11:35:39;;;;;;;8.02;4.03;;;;;;;2.64;63.18;102231.66;4992106;28;20062;-63
2021/03/20 11:38:05;;;;;;;6.68;4.55;;;;;;;2.75;63.58;102226.72;4991677;28;20070;-63
2021/03/20 11:40:34;;;;;;;7.82;3.92;;;;;;;2.77;63.80;102216.09;4992483;28;20066;-63
2021/03/20 11:43:03;;;;;;;7.70;4.10;;;;;;;2.89;63.69;102216.31;4992005;28;20042;-63
2021/03/20 11:45:31;;;;;;;10.15;4.80;;;;;;;3.09;64.11;102207.41;4992673;28;20458;-63
2021/03/20 11:48:03;;;;;;;8.95;4.57;;;;;;;2.94;63.85;102206.41;4992466;28;20046;-63
2021/03/20 11:50:34;;;;;;;8.40;4.18;;;;;;;3.07;64.01;102197.88;4975475;28;20095;-63
2021/03/20 11:53:04;;;;;;;8.15;4.28;;;;;;;2.95;64.46;102202.84;4992430;28;20042;-63
2021/03/20 11:55:39;;;;;;;9.27;4.43;;;;;;;3.06;64.42;102196.16;4992433;28;20518;-63
2021/03/20 11:58:25;;;;;;;7.22;4.75;;;;;;;3.18;64.42;102174.41;4989853;28;20063;-63
2021/03/20 12:00:51;;;;;;;10.52;5.03;;;;;;;3.19;64.28;102175.28;4990626;28;20065;-63
2021/03/20 12:03:22;;;;;;;11.00;5.03;;;;;;;3.32;65.96;102182.44;4989800;28;20432;-63
2021/03/20 12:06:08;;;;;;;12.18;4.68;;;;;;;3.46;63.60;102165.03;4973505;28;20038;-63
2021/03/20 12:08:36;;;;;;;;;;;;;;;3.33;64.17;102156.94;4990102;28;20034;-63